Time;durP1;ratioP1;P1;durP2;ratioP2;P2;SDS_P1;SDS_P2;PMS_P1;PMS_P2;Temp;Humidity;BMP_temperature;BMP_pressure;BME280_temperature;BME280_humidity;BME280_pressure;Samples;Min_cycle;Max_cycle;Signal;HPM_P1;HPM_P2
2024/03/22 06:58:50;;;;;;;12.57;7.88;;;;;;;;;;10670892;27;20027;-84
2024/03/22 07:03:57;;;;;;;18.00;12.90;;;;;;;;;;10649281;27;20031;-84
2024/03/22 07:09:00;;;;;;;7.75;5.72;;;;;;;;;;10675846;27;20055;-83
2024/03/22 07:14:11;;;;;;;16.85;12.10;;;;;;;;;;10692152;27;20012;-83
2024/03/22 07:19:12;;;;;;;11.85;8.93;;;;;;;;;;10690395;27;20022;-84
2024/03/22 07:24:13;;;;;;;16.27;12.27;;;;;;;;;;10660688;27;20070;-84
2024/03/22 07:29:14;;;;;;;18.10;12.15;;;;;;;;;;10660377;27;20031;-84
2024/03/22 07:34:16;;;;;;;21.27;14.60;;;;;;;;;;10657509;27;20105;-84
2024/03/22 07:39:17;;;;;;;9.85;6.20;;;;;;;;;;10658136;27;20570;-84
2024/03/22 07:44:24;;;;;;;20.17;13.52;;;;;;;;;;10676620;27;20027;-84
2024/03/22 07:49:25;;;;;;;14.93;10.85;;;;;;;;;;10669346;27;20031;-83
2024/03/22 07:54:32;;;;;;;16.55;10.95;;;;;;;;;;10649708;27;20034;-83
2024/03/22 07:59:46;;;;;;;15.23;11.13;;;;;;;;;;10632886;27;20118;-83
2024/03/22 08:04:47;;;;;;;5.50;3.88;;;;;;;;;;10628595;27;20027;-82
2024/03/22 08:09:48;;;;;;;6.95;4.28;;;;;;;;;;10627106;27;20400;-83
2024/03/22 08:14:49;;;;;;;6.22;4.75;;;;;;;;;;10627082;27;20080;-83
2024/03/22 08:19:50;;;;;;;7.88;5.93;;;;;;;;;;10642726;27;20043;-81
2024/03/22 08:24:51;;;;;;;9.15;6.40;;;;;;;;;;10625780;27;20112;-81
2024/03/22 08:29:52;;;;;;;8.35;5.65;;;;;;;;;;10625281;27;20051;-82
2024/03/22 08:34:53;;;;;;;6.78;4.93;;;;;;;;;;10644451;27;20052;-81
2024/03/22 08:39:54;;;;;;;7.55;5.72;;;;;;;;;;10625940;27;20052;-81
2024/03/22 08:44:57;;;;;;;6.82;5.10;;;;;;;;;;10645049;27;20023;-81
2024/03/22 08:49:59;;;;;;;6.97;5.13;;;;;;;;;;10645325;27;20086;-81
2024/03/22 08:55:00;;;;;;;6.85;5.30;;;;;;;;;;10646200;27;20015;-82
2024/03/22 09:00:01;;;;;;;9.02;5.10;;;;;;;;;;10638360;27;20521;-81
2024/03/22 09:05:02;;;;;;;7.40;5.28;;;;;;;;;;10655178;27;20031;-81
2024/03/22 09:10:03;;;;;;;9.32;5.18;;;;;;;;;;10639588;27;20039;-81
2024/03/22 09:15:05;;;;;;;6.80;4.88;;;;;;;;;;10655725;27;20041;-81
2024/03/22 09:20:07;;;;;;;7.72;4.80;;;;;;;;;;10642044;27;20044;-80
2024/03/22 09:25:08;;;;;;;8.15;5.07;;;;;;;;;;10660180;27;20027;-81
2024/03/22 09:30:09;;;;;;;6.93;4.88;;;;;;;;;;10637892;27;20489;-82
2024/03/22 09:35:14;;;;;;;6.68;4.57;;;;;;;;;;10649440;27;20051;-82
2024/03/22 09:40:15;;;;;;;7.20;5.50;;;;;;;;;;10631412;27;20048;-83
2024/03/22 09:45:18;;;;;;;7.22;5.10;;;;;;;;;;10657254;27;20168;-82
2024/03/22 09:50:19;;;;;;;6.22;4.25;;;;;;;;;;10621150;22;20047;-82
2024/03/22 09:55:24;;;;;;;8.02;5.05;;;;;;;;;;10575608;28;20058;-82
2024/03/22 10:00:26;;;;;;;7.15;4.50;;;;;;;;;;10589188;27;20046;-82
2024/03/22 10:05:27;;;;;;;6.53;4.20;;;;;;;;;;10615937;27;20484;-82
2024/03/22 10:10:28;;;;;;;6.93;4.68;;;;;;;;;;10612801;27;20083;-82
2024/03/22 10:15:30;;;;;;;7.45;4.68;;;;;;;;;;10639900;27;20508;-81
2024/03/22 10:20:33;;;;;;;8.93;4.85;;;;;;;;;;10639053;27;20019;-82
2024/03/22 10:25:34;;;;;;;6.80;4.43;;;;;;;;;;10615309;27;20031;-82
2024/03/22 10:30:36;;;;;;;9.73;4.90;;;;;;;;;;10637835;27;20086;-85
2024/03/22 10:35:39;;;;;;;8.80;4.68;;;;;;;;;;10638042;27;20032;-83
2024/03/22 10:40:46;;;;;;;6.95;5.60;;;;;;;;;;10620127;27;20020;-85
2024/03/22 10:45:48;;;;;;;7.00;5.07;;;;;;;;;;10637612;28;20015;-85
2024/03/22 10:50:50;;;;;;;10.23;6.07;;;;;;;;;;10646471;27;20035;-83
2024/03/22 10:55:51;;;;;;;7.50;4.85;;;;;;;;;;10616550;28;20087;-83
2024/03/22 11:00:53;;;;;;;11.80;6.00;;;;;;;;;;10633467;27;20023;-82
2024/03/22 11:05:56;;;;;;;6.60;4.57;;;;;;;;;;10633606;28;20086;-83
2024/03/22 11:10:57;;;;;;;7.70;5.25;;;;;;;;;;10632619;27;20027;-83
2024/03/22 11:15:59;;;;;;;9.00;7.30;;;;;;;;;;10634963;28;20031;-84
2024/03/22 11:21:00;;;;;;;6.55;5.50;;;;;;;;;;10627500;27;20021;-83
2024/03/22 11:26:02;;;;;;;7.18;6.18;;;;;;;;;;10666416;27;20345;-84
2024/03/22 11:31:03;;;;;;;13.18;10.80;;;;;;;;;;10642099;27;20031;-85
2024/03/22 11:36:04;;;;;;;11.30;10.02;;;;;;;;;;10625718;27;20092;-85
2024/03/22 11:41:05;;;;;;;6.90;4.53;;;;;;;;;;10654040;27;20023;-83
2024/03/22 11:46:06;;;;;;;10.80;7.40;;;;;;;;;;10650048;27;20030;-86
2024/03/22 11:51:11;;;;;;;10.95;8.52;;;;;;;;;;10638968;27;20063;-84
2024/03/22 11:56:13;;;;;;;9.77;6.88;;;;;;;;;;10642047;27;20022;-83
2024/03/22 12:01:15;;;;;;;8.55;7.22;;;;;;;;;;10659463;27;20069;-85
2024/03/22 12:06:16;;;;;;;7.95;6.10;;;;;;;;;;10642877;27;20023;-86
2024/03/22 12:11:17;;;;;;;6.43;5.72;;;;;;;;;;10621798;27;20031;-85
2024/03/22 12:16:18;;;;;;;7.55;5.20;;;;;;;;;;10634194;27;20534;-87
2024/03/22 12:21:19;;;;;;;5.22;4.10;;;;;;;;;;10617547;27;20043;-85
2024/03/22 12:26:20;;;;;;;3.72;3.38;;;;;;;;;;10640183;27;20108;-85
2024/03/22 12:31:21;;;;;;;6.18;5.00;;;;;;;;;;10623019;27;20088;-85
2024/03/22 12:36:22;;;;;;;12.05;9.55;;;;;;;;;;10638461;27;20083;-84
2024/03/22 12:41:24;;;;;;;7.53;5.25;;;;;;;;;;10619309;27;20464;-84
2024/03/22 12:46:25;;;;;;;6.05;5.20;;;;;;;;;;10623547;27;20059;-85
2024/03/22 12:51:26;;;;;;;10.00;7.78;;;;;;;;;;10626711;27;20126;-84
2024/03/22 12:56:27;;;;;;;9.00;7.05;;;;;;;;;;10643169;27;20472;-85
2024/03/22 13:01:29;;;;;;;9.68;7.72;;;;;;;;;;10643238;27;20091;-84
2024/03/22 13:06:30;;;;;;;7.30;5.72;;;;;;;;;;10651103;27;20023;-83
2024/03/22 13:11:32;;;;;;;7.63;6.57;;;;;;;;;;10633874;27;20442;-85
2024/03/22 13:16:33;;;;;;;7.90;6.15;;;;;;;;;;10639811;27;20011;-83
2024/03/22 13:21:35;;;;;;;6.15;5.55;;;;;;;;;;10638692;27;20098;-83
2024/03/22 13:26:36;;;;;;;5.00;4.32;;;;;;;;;;10622977;27;20098;-81
2024/03/22 13:31:37;;;;;;;7.38;4.93;;;;;;;;;;10623700;27;20046;-83
2024/03/22 13:36:38;;;;;;;9.57;6.63;;;;;;;;;;10623799;27;20043;-83
2024/03/22 13:41:39;;;;;;;6.35;5.15;;;;;;;;;;10639257;27;20114;-83
2024/03/22 13:46:41;;;;;;;5.57;4.70;;;;;;;;;;10623576;27;20064;-85
2024/03/22 13:51:42;;;;;;;6.40;5.03;;;;;;;;;;10619082;27;20544;-84
2024/03/22 13:56:43;;;;;;;4.88;4.13;;;;;;;;;;10637675;27;20026;-84
2024/03/22 14:01:47;;;;;;;6.30;4.95;;;;;;;;;;10618442;27;20029;-84
2024/03/22 14:06:48;;;;;;;8.25;5.80;;;;;;;;;;10637358;27;20034;-84
2024/03/22 14:11:49;;;;;;;6.03;5.10;;;;;;;;;;10620521;27;20489;-84
2024/03/22 14:16:50;;;;;;;5.97;4.90;;;;;;;;;;10658320;27;20144;-83
2024/03/22 14:21:51;;;;;;;8.32;6.80;;;;;;;;;;10650711;27;20472;-84
2024/03/22 14:26:53;;;;;;;7.82;5.43;;;;;;;;;;10641925;27;20044;-83
2024/03/22 14:31:55;;;;;;;6.38;4.25;;;;;;;;;;10622356;27;20122;-84
2024/03/22 14:36:56;;;;;;;5.80;5.10;;;;;;;;;;10619783;27;20522;-84
2024/03/22 14:41:57;;;;;;;9.90;8.10;;;;;;;;;;10636721;27;20023;-84
2024/03/22 14:46:58;;;;;;;8.00;6.30;;;;;;;;;;10618818;28;20118;-84
2024/03/22 14:52:00;;;;;;;9.35;7.90;;;;;;;;;;10649593;27;20107;-83
2024/03/22 14:57:01;;;;;;;5.82;5.13;;;;;;;;;;10650682;28;20023;-84
2024/03/22 15:02:02;;;;;;;6.25;5.63;;;;;;;;;;10647210;27;20027;-84
2024/03/22 15:07:03;;;;;;;9.50;6.55;;;;;;;;;;10652500;27;20035;-85
2024/03/22 15:12:04;;;;;;;11.75;8.45;;;;;;;;;;10651343;27;20061;-83
2024/03/22 15:17:05;;;;;;;5.97;4.45;;;;;;;;;;10636086;27;20138;-85
2024/03/22 15:22:08;;;;;;;15.07;6.45;;;;;;;;;;10666310;27;20035;-84
2024/03/22 15:27:09;;;;;;;6.65;5.45;;;;;;;;;;10654467;27;20029;-83
2024/03/22 15:32:10;;;;;;;13.15;10.88;;;;;;;;;;10622045;27;20071;-83
2024/03/22 15:37:11;;;;;;;6.18;5.57;;;;;;;;;;10619178;27;20051;-83
2024/03/22 15:42:12;;;;;;;7.18;6.40;;;;;;;;;;10633714;27;20076;-84
2024/03/22 15:47:14;;;;;;;5.72;5.15;;;;;;;;;;10622770;27;20069;-82
2024/03/22 15:52:15;;;;;;;9.27;7.68;;;;;;;;;;10573441;22;20048;-82
2024/03/22 15:57:36;;;;;;;5.63;4.65;;;;;;;;;;10470345;28;20085;-82
2024/03/22 16:02:37;;;;;;;7.55;5.53;;;;;;;;;;10535458;28;20365;-81
2024/03/22 16:07:38;;;;;;;8.57;7.70;;;;;;;;;;10551470;28;20042;-82
2024/03/22 16:12:41;;;;;;;14.02;12.18;;;;;;;;;;10552451;28;20489;-82
2024/03/22 16:17:43;;;;;;;5.63;4.93;;;;;;;;;;10531590;28;20016;-82
2024/03/22 16:22:44;;;;;;;13.95;11.38;;;;;;;;;;10532031;28;20370;-82
2024/03/22 16:27:48;;;;;;;5.53;4.40;;;;;;;;;;10532854;28;20059;-82
2024/03/22 16:32:52;;;;;;;7.63;6.80;;;;;;;;;;10550214;28;20027;-82
2024/03/22 16:38:06;;;;;;;7.97;6.78;;;;;;;;;;10531488;28;20055;-82
2024/03/22 16:43:09;;;;;;;5.65;5.13;;;;;;;;;;10532081;28;20510;-82
2024/03/22 16:48:12;;;;;;;9.75;8.75;;;;;;;;;;10534466;28;20123;-81
2024/03/22 16:53:13;;;;;;;6.85;5.80;;;;;;;;;;10513054;28;20507;-82
2024/03/22 16:58:44;;;;;;;7.05;6.35;;;;;;;;;;10507677;28;20020;-81
2024/03/22 17:03:47;;;;;;;4.35;3.90;;;;;;;;;;10493945;28;20071;-83
2024/03/22 17:08:48;;;;;;;5.95;5.10;;;;;;;;;;10510538;28;20024;-83
2024/03/22 17:14:01;;;;;;;6.72;6.03;;;;;;;;;;10520068;28;20470;-83
2024/03/22 17:19:03;;;;;;;5.80;4.35;;;;;;;;;;10513764;28;20397;-84
2024/03/22 17:24:07;;;;;;;6.05;4.88;;;;;;;;;;10509750;28;20493;-83
2024/03/22 17:29:10;;;;;;;7.07;5.68;;;;;;;;;;10505697;28;20029;-84
2024/03/22 17:34:11;;;;;;;5.90;4.97;;;;;;;;;;10505248;28;20047;-81
2024/03/22 17:39:19;;;;;;;5.82;4.70;;;;;;;;;;10505014;28;20023;-81
2024/03/22 17:44:22;;;;;;;6.40;5.73;;;;;;;;;;10509561;28;20037;-84
2024/03/22 17:49:23;;;;;;;4.13;3.72;;;;;;;;;;10508314;28;20028;-84
2024/03/22 17:54:25;;;;;;;5.20;4.18;;;;;;;;;;10532497;28;20504;-84
2024/03/22 17:59:26;;;;;;;4.28;3.67;;;;;;;;;;10531708;28;20020;-84
2024/03/22 18:04:27;;;;;;;3.90;3.50;;;;;;;;;;10549650;28;20107;-83
2024/03/22 18:09:28;;;;;;;4.18;3.78;;;;;;;;;;10536436;28;20047;-83
2024/03/22 18:14:29;;;;;;;4.75;4.10;;;;;;;;;;10555077;28;20039;-80
2024/03/22 18:19:30;;;;;;;4.35;3.60;;;;;;;;;;10582582;28;20031;-80
2024/03/22 18:24:32;;;;;;;4.68;3.53;;;;;;;;;;10547767;28;20518;-84
2024/03/22 18:29:33;;;;;;;4.00;3.20;;;;;;;;;;10530605;28;20028;-83
2024/03/22 18:34:34;;;;;;;3.47;2.90;;;;;;;;;;10546520;28;20093;-80
2024/03/22 18:39:35;;;;;;;3.40;2.72;;;;;;;;;;10527377;28;20035;-80
2024/03/22 18:44:40;;;;;;;4.07;3.00;;;;;;;;;;10544681;28;20392;-80
2024/03/22 18:49:42;;;;;;;5.40;3.47;;;;;;;;;;10545228;28;20032;-80
2024/03/22 18:54:48;;;;;;;5.45;4.28;;;;;;;;;;10552182;28;20020;-83
2024/03/22 18:59:49;;;;;;;3.03;2.72;;;;;;;;;;10552199;28;20032;-83
2024/03/22 19:04:50;;;;;;;5.30;3.85;;;;;;;;;;10551663;28;20087;-83
2024/03/22 19:09:51;;;;;;;3.95;3.15;;;;;;;;;;10551143;28;20020;-83
2024/03/22 19:14:52;;;;;;;3.97;2.67;;;;;;;;;;10554200;28;20047;-82
2024/03/22 19:19:53;;;;;;;3.53;2.75;;;;;;;;;;10538680;28;20068;-85
2024/03/22 19:24:54;;;;;;;4.00;3.13;;;;;;;;;;10529941;28;20028;-84
2024/03/22 19:29:55;;;;;;;5.35;3.78;;;;;;;;;;10550201;28;20048;-85
2024/03/22 19:34:56;;;;;;;3.03;2.70;;;;;;;;;;10549761;28;20051;-85
2024/03/22 19:39:57;;;;;;;3.45;2.28;;;;;;;;;;10532113;28;20038;-84
2024/03/22 19:44:58;;;;;;;3.00;2.33;;;;;;;;;;10530194;28;20039;-84
2024/03/22 19:50:00;;;;;;;4.03;3.58;;;;;;;;;;10557544;28;20035;-84
2024/03/22 19:55:05;;;;;;;2.95;2.60;;;;;;;;;;10538899;28;20552;-84
2024/03/22 20:00:07;;;;;;;4.60;3.35;;;;;;;;;;10556565;28;20080;-84
2024/03/22 20:05:08;;;;;;;3.63;2.78;;;;;;;;;;10556243;28;20031;-85
